Sunday, October 22, 2017, 5:12 PM EDT
Back to Local

KPIT, Greater Pittsburgh International

Location: Coraopolis, PA, United States Lat: 40.483
Local Time: 5:12 PM EDT (21:12 GMT) Lon: -80.233
Time Zone: US/Eastern Elev: 1204 ft

Show me the last for .
Show Decoded

2017-10-22 16:51 METAR KPIT 222051Z 17006KT 10SM FEW120 BKN250 24/08 A3018 RMK AO2 SLP225
                 T02440083 56020 =
2017-10-22 15:51 METAR KPIT 221951Z 17004KT 10SM BKN250 24/09 A3020 RMK AO2 SLP232 T02440089 =
2017-10-22 14:51 METAR KPIT 221851Z 17009KT 10SM BKN250 24/09 A3022 RMK AO2 SLP236 T02440089 =
2017-10-22 13:51 METAR KPIT 221751Z 19006KT 10SM BKN250 24/11 A3025 RMK AO2 SLP246 T02390106
                 10239 20089 58018 =
2017-10-22 12:51 METAR KPIT 221651Z VRB05KT 10SM BKN250 22/11 A3027 RMK AO2 SLP255 T02220111 =
2017-10-22 11:51 METAR KPIT 221551Z 20008KT 10SM BKN250 21/11 A3029 RMK AO2 SLP262 T02060111 =
2017-10-22 10:51 METAR KPIT 221451Z 17006KT 10SM BKN250 18/12 A3030 RMK AO2 SLP266 T01830117
                 50004 =
2017-10-22 09:51 METAR KPIT 221351Z 15005KT 10SM BKN250 15/12 A3031 RMK AO2 SLP269 T01500117 =
2017-10-22 08:51 METAR KPIT 221251Z 00000KT 10SM BKN250 12/11 A3030 RMK AO2 SLP267 T01220111 =
2017-10-22 07:51 METAR KPIT 221151Z 13003KT 10SM SCT250 09/08 A3029 RMK AO2 SLP263 T00940083
                 10122 20089 50003 =
2017-10-22 06:51 METAR KPIT 221051Z 00000KT 10SM FEW250 10/08 A3029 RMK AO2 SLP265 T01000083 =
2017-10-22 05:51 METAR KPIT 220951Z 00000KT 10SM FEW250 10/09 A3029 RMK AO2 SLP261 T01000089 =
2017-10-22 04:51 METAR KPIT 220851Z 00000KT 10SM FEW250 11/09 A3028 RMK AO2 SLP257 T01060094
                 53009 =
2017-10-22 03:51 METAR KPIT 220751Z 00000KT 10SM SCT250 11/10 A3026 RMK AO2 SLP252 T01110100 =
2017-10-22 02:51 METAR KPIT 220651Z 00000KT 10SM SCT250 12/10 A3025 RMK AO2 SLP249 T01220100 =
2017-10-22 01:51 METAR KPIT 220551Z 00000KT 10SM FEW250 12/10 A3025 RMK AO2 SLP248 T01170100
                 10189 20117 58008 =
2017-10-22 00:51 METAR KPIT 220451Z 00000KT 10SM FEW250 13/12 A3026 RMK AO2 SLP251 T01330117
                 402390061 =
2017-10-21 23:51 METAR KPIT 220351Z 00000KT 10SM SCT250 14/12 A3027 RMK AO2 SLP255 T01390117 =
2017-10-21 22:51 METAR KPIT 220251Z 00000KT 10SM SCT250 14/12 A3028 RMK AO2 SLP259 T01440117
                 50002 =
2017-10-21 21:51 METAR KPIT 220151Z 00000KT 10SM FEW150 OVC250 16/13 A3028 RMK AO2 SLP260
                 T01610128 =
2017-10-21 20:51 METAR KPIT 220051Z 00000KT 10SM FEW150 OVC240 17/13 A3028 RMK AO2 SLP260
                 T01720128 =
2017-10-21 19:51 METAR KPIT 212351Z 00000KT 10SM FEW150 OVC240 19/13 A3027 RMK AO2 SLP259
                 T01890128 10239 20183 53005 =
2017-10-21 18:51 METAR KPIT 212251Z 00000KT 10SM FEW150 OVC240 21/12 A3027 RMK AO2 SLP257
                 T02060122 =
2017-10-21 17:51 METAR KPIT 212151Z 13004KT 10SM FEW150 OVC230 22/12 A3025 RMK AO2 SLP252
                 T02170122 =

Support USWX by starting your Amazon purchase here.